Riverside, CA (92518)

11:35 AM PDT on August 29, 2016 (GMT -0700)
Orangecrest | | Change Station

Elev 1683 ft 33.90 °N, 117.30 °W | Updated 11 minutes ago

Clear
Clear
89.9 °F
Feels Like 89 °F
N
1.0
Wind Variable Wind from SSE
Gusts 6.0 mph

Today
High -- | Low -- °F
--% Chance of Precip.
Yesterday
High -- | Low -- °F
Precip. -- in
Pressure 29.94 in
Visibility 10.0 miles
Clouds Clear
Heat Index 89 °F
Dew Point 57 °F
Humidity 33%
Rainfall 0.00 in
Snow Depth Not available.
6:21 AM 7:17 PM
Waning Crescent, 7% visible
METAR KRIV 291758Z 35005KT 10SM CLR 33/09 A2998 RMK AO2A SLP136 T03260087 10326 20159 58006
Pressure 29.94 in
Visibility 10.0 miles
Clouds Clear
Heat Index 89 °F
Dew Point 57 °F
Humidity 33%
Rainfall 0.00 in
Snow Depth Not available.
6:21 AM 7:17 PM
Waning Crescent, 7% visible
METAR KRIV 291758Z 35005KT 10SM CLR 33/09 A2998 RMK AO2A SLP136 T03260087 10326 20159 58006

10-Day Weather Forecast

Almanac

Astronomy

Aug. 29, 2016 Rise Set
Actual Time
Civil Twilight
Nautical Twilight
Astronomical Twilight
Moon
Length of Visible Light
Length of Day
Tomorrow will be .
, % of the Moon is Illuminated

Today's Extremes

State Highs State Lows

Community

WunderPhotos

Upload Photos

1,935,685 photos uploaded!

WunderBlog® & News

Nearby

Air Quality

  Air Quality AQ Index Pollutant
Not available.

Snow Depth

Station Depth Elevation

Earthquake Activity

City Distance Mag. Time & Date
Minimum magnitude displayed is 2.5.

Coastal Water Temperatures

Place Temperature

Stations

Nearby Weather Stations

Station Location Temp. Windchill Dew Point Humidity Wind Precip. Elev Updated Type
                   

Watches & Warnings

There are currently no watches in effect.